Amstetten, Austria

7:34 PM CEST on July 26, 2016 (GMT +0200)
DBSolutions, Winklarn, Austria | | Change Station

Elev 1050 ft 48.09 °N, 14.85 °E | Updated 37 seconds ago

Scattered Clouds
Scattered Clouds
71.8 °F
Feels Like 72 °F
N
0.0
Wind Variable Wind from SW
Gusts 0.0 mph

Today
High -- | Low -- °F
--% Chance of Precip.
Yesterday
High -- | Low -- °F
Precip. -- in
Pressure 30.06 in
Visibility 6.2 miles
Clouds Few 3500 ft
Few 5000 ft
Scattered Clouds 14000 ft
Heat Index 72 °F
Dew Point 65 °F
Humidity 79%
Rainfall 0.45 in
Snow Depth Not available.
5:29 AM 8:44 PM
Waning Gibbous, 53% visible
METAR LOWL 261720Z 29004KT 260V320 9999 FEW035 FEW050CB SCT140 24/18 Q1018 TEMPO TS
Pressure 30.06 in
Visibility 6.2 miles
Clouds Few 3500 ft
Few 5000 ft
Scattered Clouds 14000 ft
Heat Index 72 °F
Dew Point 65 °F
Humidity 79%
Rainfall 0.45 in
Snow Depth Not available.
5:29 AM 8:44 PM
Waning Gibbous, 53% visible
METAR LOWL 261720Z 29004KT 260V320 9999 FEW035 FEW050CB SCT140 24/18 Q1018 TEMPO TS

10-Day Weather Forecast

×

Almanac

Astronomy

Jul. 26, 2016 Rise Set
Actual Time
Civil Twilight
Nautical Twilight
Astronomical Twilight
Moon
Length of Visible Light
Length of Day
Tomorrow will be .
, % of the Moon is Illuminated

Today's Extremes

Country Highs Country Lows

Community

WunderPhotos

Upload Photos

1,927,648 photos uploaded!

WunderBlog® & News

Nearby

Air Quality

  Air Quality AQ Index Pollutant
Not available.

Snow Depth

Station Depth Elevation

Earthquake Activity

City Distance Mag. Time & Date
Minimum magnitude displayed is 2.5.

Coastal Water Temperatures

Place Temperature

Stations

Nearby Weather Stations

Station Location Temp. Windchill Dew Point Humidity Wind Precip. Elev Updated Type